Time;durP1;ratioP1;P1;durP2;ratioP2;P2;SDS_P1;SDS_P2;PMS_P1;PMS_P2;Temp;Humidity;BMP_temperature;BMP_pressure;BME280_temperature;BME280_humidity;BME280_pressure;Samples;Min_cycle;Max_cycle;Signal;HPM_P1;HPM_P2
2022/10/19 00:01:07;;;;;;;2.13;0.60;;;10.50;96.80;;;;;;5023661;28;20065;-64
2022/10/19 00:03:34;;;;;;;3.53;0.88;;;10.40;96.90;;;;;;5041766;28;20021;-63
2022/10/19 00:06:13;;;;;;;3.33;0.95;;;10.40;97.00;;;;;;5022781;28;20048;-63
2022/10/19 00:08:39;;;;;;;2.72;0.80;;;10.40;97.00;;;;;;5024413;28;20025;-64
2022/10/19 00:11:05;;;;;;;4.00;0.80;;;10.40;97.10;;;;;;5024132;28;20437;-63
2022/10/19 00:13:30;;;;;;;2.75;0.70;;;10.30;97.20;;;;;;5024156;28;20033;-63
2022/10/19 00:15:56;;;;;;;2.70;0.77;;;10.30;97.20;;;;;;5029801;28;20025;-63
2022/10/19 00:18:21;;;;;;;2.80;0.73;;;10.30;97.30;;;;;;5034505;28;20040;-63
2022/10/19 00:20:47;;;;;;;3.53;0.80;;;10.20;97.60;;;;;;5024479;28;20037;-63
2022/10/19 00:23:12;;;;;;;2.60;0.82;;;10.20;97.30;;;;;;5029035;28;20030;-64
2022/10/19 00:25:38;;;;;;;2.33;0.90;;;10.10;97.40;;;;;;5027426;28;20025;-63
2022/10/19 00:28:03;;;;;;;3.50;1.10;;;10.10;97.50;;;;;;5025467;28;20033;-63
2022/10/19 00:30:29;;;;;;;3.03;0.93;;;10.10;97.60;;;;;;5027227;28;20147;-63
2022/10/19 00:32:55;;;;;;;3.08;0.73;;;10.10;97.60;;;;;;5019171;28;20034;-63
2022/10/19 00:35:20;;;;;;;2.13;0.70;;;10.00;97.60;;;;;;5023081;28;20386;-64
2022/10/19 00:37:46;;;;;;;1.70;0.80;;;10.00;97.70;;;;;;5023991;28;20392;-63
2022/10/19 00:40:12;;;;;;;2.38;0.60;;;9.90;97.70;;;;;;5029620;28;20037;-63
2022/10/19 00:42:38;;;;;;;4.20;0.93;;;10.00;97.80;;;;;;5023969;28;20695;-63
2022/10/19 00:45:12;;;;;;;2.42;0.73;;;9.90;97.80;;;;;;5029575;28;20144;-64
2022/10/19 00:47:37;;;;;;;3.60;1.05;;;9.90;97.90;;;;;;5037639;28;20021;-63
2022/10/19 00:50:03;;;;;;;4.13;1.10;;;9.90;97.90;;;;;;5021363;28;20049;-63
2022/10/19 00:52:29;;;;;;;1.63;0.75;;;9.80;98.00;;;;;;5020989;28;20040;-63
2022/10/19 00:54:57;;;;;;;2.65;1.10;;;9.80;98.10;;;;;;5026600;28;20025;-64
2022/10/19 00:57:27;;;;;;;2.33;0.95;;;9.80;98.10;;;;;;5023409;28;20478;-63
2022/10/19 00:59:53;;;;;;;2.95;0.80;;;9.70;98.10;;;;;;5023677;28;20163;-63
2022/10/19 01:02:19;;;;;;;3.15;1.10;;;9.70;98.20;;;;;;5023094;28;20359;-63
2022/10/19 01:04:50;;;;;;;1.75;0.70;;;9.70;98.30;;;;;;5025341;28;20037;-63
2022/10/19 01:07:16;;;;;;;2.35;0.52;;;9.70;98.40;;;;;;5021776;28;20105;-63
2022/10/19 01:09:41;;;;;;;3.38;0.93;;;9.70;98.40;;;;;;5026319;28;20091;-63
2022/10/19 01:12:25;;;;;;;2.45;0.80;;;9.70;98.50;;;;;;5017717;28;20030;-63
2022/10/19 01:15:22;;;;;;;1.73;0.77;;;9.60;98.40;;;;;;5028752;28;20026;-63
2022/10/19 01:18:15;;;;;;;1.45;0.85;;;9.60;98.50;;;;;;5026237;28;20025;-63
2022/10/19 01:21:02;;;;;;;2.20;1.05;;;9.50;98.60;;;;;;5024687;28;20584;-63
2022/10/19 01:23:49;;;;;;;2.55;0.70;;;9.50;98.70;;;;;;5022989;28;20069;-63
2022/10/19 01:26:34;;;;;;;3.10;0.80;;;9.40;98.70;;;;;;5019730;28;20033;-63
2022/10/19 01:29:24;;;;;;;4.47;0.85;;;9.40;98.80;;;;;;5024446;28;20025;-63
2022/10/19 01:32:09;;;;;;;2.15;0.52;;;9.40;98.80;;;;;;5022083;28;20017;-63
2022/10/19 01:34:52;;;;;;;1.80;0.80;;;9.40;98.90;;;;;;5021143;28;20025;-63
2022/10/19 01:37:35;;;;;;;3.42;1.33;;;9.40;98.90;;;;;;5039518;28;20029;-63
2022/10/19 01:40:13;;;;;;;2.38;0.88;;;9.40;98.90;;;;;;5025294;28;20080;-63
2022/10/19 01:42:58;;;;;;;2.72;1.02;;;9.30;99.00;;;;;;5024671;28;20041;-63
2022/10/19 01:45:48;;;;;;;2.53;0.85;;;9.30;99.00;;;;;;5025249;28;20049;-63
2022/10/19 01:48:20;;;;;;;2.00;1.27;;;9.30;99.10;;;;;;5020074;28;20026;-63
2022/10/19 01:50:58;;;;;;;4.85;1.10;;;9.40;99.20;;;;;;5023139;28;20030;-63
2022/10/19 01:53:27;;;;;;;3.92;1.30;;;9.40;99.20;;;;;;5023335;28;20033;-63
2022/10/19 01:55:55;;;;;;;2.17;1.00;;;9.30;99.20;;;;;;5023796;28;20152;-63
2022/10/19 01:58:26;;;;;;;3.05;1.10;;;9.30;99.30;;;;;;5020690;28;20030;-63
2022/10/19 02:00:54;;;;;;;1.60;0.90;;;9.30;99.40;;;;;;5026754;28;20057;-63
2022/10/19 02:03:20;;;;;;;2.92;1.00;;;9.30;99.40;;;;;;5020471;28;20026;-63
2022/10/19 02:05:48;;;;;;;2.63;1.10;;;9.20;99.50;;;;;;5042881;28;20033;-63
2022/10/19 02:08:19;;;;;;;3.92;1.20;;;9.20;99.60;;;;;;5037701;28;20032;-63
2022/10/19 02:10:45;;;;;;;3.42;1.15;;;9.20;99.70;;;;;;5025962;28;20018;-63
2022/10/19 02:13:13;;;;;;;3.03;1.20;;;9.20;99.80;;;;;;5010401;28;20041;-63
2022/10/19 02:15:42;;;;;;;3.28;1.42;;;9.20;99.90;;;;;;5019697;28;20026;-63
2022/10/19 02:18:11;;;;;;;3.23;2.00;;;9.10;99.90;;;;;;5027543;28;20032;-63
2022/10/19 02:20:36;;;;;;;3.92;1.20;;;9.10;99.90;;;;;;5024135;28;20026;-63
2022/10/19 02:23:04;;;;;;;4.15;1.40;;;9.10;99.90;;;;;;5027661;28;20040;-63
2022/10/19 02:25:30;;;;;;;3.78;1.38;;;9.00;99.90;;;;;;5028100;28;20032;-63
2022/10/19 02:27:56;;;;;;;2.03;1.27;;;8.90;99.90;;;;;;5022821;28;20018;-63
2022/10/19 02:30:21;;;;;;;3.63;1.45;;;8.90;99.90;;;;;;5020662;28;20031;-63
2022/10/19 02:32:49;;;;;;;2.67;1.17;;;8.90;99.90;;;;;;5016993;28;20084;-63
2022/10/19 02:35:15;;;;;;;4.07;1.58;;;8.80;99.90;;;;;;5024852;28;20026;-63
2022/10/19 02:37:41;;;;;;;2.83;1.23;;;8.80;99.90;;;;;;5010007;28;20036;-63
2022/10/19 02:40:07;;;;;;;2.80;1.25;;;8.80;99.90;;;;;;5013162;28;20029;-63
2022/10/19 02:42:47;;;;;;;1.58;0.90;;;8.80;99.90;;;;;;5028166;28;20060;-63
2022/10/19 02:45:27;;;;;;;2.55;1.08;;;8.70;99.90;;;;;;5023473;28;20026;-63
2022/10/19 02:48:06;;;;;;;2.10;0.93;;;8.70;99.90;;;;;;5022251;28;20036;-63
2022/10/19 02:50:32;;;;;;;2.03;1.23;;;8.70;99.90;;;;;;5022944;28;20021;-63
2022/10/19 02:52:58;;;;;;;3.17;1.35;;;8.60;99.90;;;;;;5040283;28;20029;-63
2022/10/19 02:55:24;;;;;;;2.33;1.30;;;8.60;99.90;;;;;;5031924;28;20115;-63
2022/10/19 02:57:49;;;;;;;3.22;1.35;;;8.60;99.90;;;;;;5023191;28;20057;-63
2022/10/19 03:00:15;;;;;;;3.65;1.92;;;8.60;99.90;;;;;;5019827;28;20034;-63
2022/10/19 03:02:41;;;;;;;1.88;1.23;;;8.60;99.90;;;;;;5029842;28;20064;-63
2022/10/19 03:05:07;;;;;;;3.03;1.90;;;8.60;99.90;;;;;;5023242;28;20034;-63
2022/10/19 03:07:33;;;;;;;4.63;1.90;;;8.60;99.90;;;;;;5019687;28;20022;-63
2022/10/19 03:09:58;;;;;;;2.10;1.52;;;8.50;99.90;;;;;;5027652;28;20025;-63
2022/10/19 03:12:24;;;;;;;3.25;1.75;;;8.50;99.90;;;;;;5022972;28;20083;-63
2022/10/19 03:14:49;;;;;;;2.67;1.58;;;8.50;99.90;;;;;;5030754;28;20504;-63
2022/10/19 03:17:15;;;;;;;2.65;1.50;;;8.50;99.90;;;;;;5024072;28;20030;-63
2022/10/19 03:19:40;;;;;;;3.63;1.52;;;8.50;99.90;;;;;;5020483;28;20440;-63
2022/10/19 03:22:06;;;;;;;3.15;1.15;;;8.50;99.90;;;;;;5035894;28;20456;-63
2022/10/19 03:24:31;;;;;;;1.77;1.17;;;8.50;99.90;;;;;;5027169;28;20041;-63
2022/10/19 03:26:57;;;;;;;2.05;1.30;;;8.40;99.90;;;;;;5023148;28;20101;-63
2022/10/19 03:29:23;;;;;;;1.92;1.38;;;8.40;99.90;;;;;;5037640;28;20125;-63
2022/10/19 03:31:48;;;;;;;3.15;1.17;;;8.40;99.90;;;;;;5020976;28;20033;-63
2022/10/19 03:34:14;;;;;;;6.85;1.40;;;8.40;99.90;;;;;;5030314;28;20040;-63
2022/10/19 03:36:40;;;;;;;1.35;1.05;;;8.40;99.90;;;;;;5028072;28;20040;-63
2022/10/19 03:39:13;;;;;;;2.20;1.15;;;8.40;99.90;;;;;;5017340;28;20482;-63
2022/10/19 03:41:39;;;;;;;3.45;1.80;;;8.40;99.90;;;;;;5024895;28;20030;-62
2022/10/19 03:44:06;;;;;;;4.13;1.40;;;8.30;99.90;;;;;;5026552;28;20128;-64
2022/10/19 03:46:32;;;;;;;4.35;2.30;;;8.40;99.90;;;;;;5025064;28;20494;-63
2022/10/19 03:48:58;;;;;;;3.40;2.58;;;8.30;99.90;;;;;;5022226;28;20029;-63
2022/10/19 03:51:28;;;;;;;4.97;2.53;;;8.30;99.90;;;;;;5030489;28;20076;-63
2022/10/19 03:54:00;;;;;;;4.63;2.40;;;8.20;99.90;;;;;;5022445;28;20048;-63
2022/10/19 03:56:28;;;;;;;4.95;2.78;;;8.20;99.90;;;;;;5025015;28;20029;-63
2022/10/19 03:58:56;;;;;;;5.50;3.03;;;8.20;99.90;;;;;;5020818;28;20034;-63
2022/10/19 04:01:27;;;;;;;3.95;2.88;;;8.20;99.90;;;;;;5028706;28;20033;-63
2022/10/19 04:03:58;;;;;;;4.90;2.95;;;8.20;99.90;;;;;;5024555;28;20531;-63
2022/10/19 04:06:35;;;;;;;3.58;2.90;;;8.20;99.90;;;;;;5024155;28;20026;-63
2022/10/19 04:09:02;;;;;;;2.67;2.20;;;8.20;99.90;;;;;;5027790;28;20112;-63
2022/10/19 04:11:29;;;;;;;8.65;3.35;;;8.20;99.90;;;;;;5027309;28;20018;-63
2022/10/19 04:13:57;;;;;;;4.10;3.00;;;8.20;99.90;;;;;;5020336;28;20025;-63
2022/10/19 04:16:23;;;;;;;4.10;2.63;;;8.20;99.90;;;;;;5027104;28;20568;-63
2022/10/19 04:18:49;;;;;;;5.55;2.42;;;8.20;99.90;;;;;;5027050;28;20104;-63
2022/10/19 04:21:29;;;;;;;3.92;2.25;;;8.20;99.90;;;;;;5024505;28;20120;-63
2022/10/19 04:24:14;;;;;;;3.08;2.10;;;8.20;99.90;;;;;;5020844;28;20390;-63
2022/10/19 04:26:42;;;;;;;4.18;2.30;;;8.20;99.90;;;;;;5025781;28;20028;-63
2022/10/19 04:29:08;;;;;;;5.10;2.33;;;8.10;99.90;;;;;;5024272;28;20026;-63
2022/10/19 04:31:34;;;;;;;7.43;2.33;;;8.10;99.90;;;;;;5027595;28;20028;-63
2022/10/19 04:34:00;;;;;;;5.40;2.03;;;8.20;99.90;;;;;;5026879;28;20029;-63
2022/10/19 04:36:25;;;;;;;2.67;2.38;;;8.10;99.90;;;;;;5021633;28;20030;-63
2022/10/19 04:38:51;;;;;;;5.50;2.10;;;8.10;99.90;;;;;;5024013;28;20037;-63
2022/10/19 04:41:19;;;;;;;2.13;1.92;;;8.10;99.90;;;;;;5025749;28;20072;-63
2022/10/19 04:43:45;;;;;;;2.35;1.92;;;8.00;99.90;;;;;;5026757;28;20524;-63
2022/10/19 04:46:17;;;;;;;1.95;1.70;;;8.10;99.90;;;;;;5027108;28;20166;-63
2022/10/19 04:48:43;;;;;;;5.38;2.10;;;8.10;99.90;;;;;;5025375;28;20370;-63
2022/10/19 04:51:09;;;;;;;2.25;1.67;;;8.10;99.90;;;;;;5026523;28;20494;-63
2022/10/19 04:53:37;;;;;;;2.85;1.48;;;8.10;99.90;;;;;;5019493;28;20481;-63
2022/10/19 04:56:08;;;;;;;3.45;1.48;;;8.00;99.90;;;;;;5025290;28;20025;-63
2022/10/19 04:58:34;;;;;;;4.72;1.88;;;8.00;99.90;;;;;;5020402;28;20037;-63
2022/10/19 05:01:09;;;;;;;4.75;1.83;;;8.00;99.90;;;;;;5024280;28;20084;-63
2022/10/19 05:03:35;;;;;;;1.63;1.35;;;8.00;99.90;;;;;;5025920;28;20021;-63
2022/10/19 05:06:00;;;;;;;2.72;1.90;;;8.00;99.90;;;;;;5021783;28;20029;-63
2022/10/19 05:08:26;;;;;;;3.00;1.60;;;7.90;99.90;;;;;;5021220;28;20068;-63
2022/10/19 05:10:51;;;;;;;3.47;1.52;;;7.90;99.90;;;;;;5028769;28;20021;-63
2022/10/19 05:13:17;;;;;;;1.63;1.45;;;7.90;99.90;;;;;;5019896;28;20075;-63
2022/10/19 05:15:42;;;;;;;4.85;1.67;;;7.80;99.90;;;;;;5025857;28;20025;-63
2022/10/19 05:18:08;;;;;;;2.25;1.58;;;7.80;99.90;;;;;;5026672;28;20022;-63
2022/10/19 05:20:33;;;;;;;1.27;1.13;;;7.80;99.90;;;;;;5029272;28;20363;-63
2022/10/19 05:22:59;;;;;;;2.20;1.63;;;7.80;99.90;;;;;;5031585;28;20035;-63
2022/10/19 05:25:24;;;;;;;1.42;1.33;;;7.80;99.90;;;;;;5032544;28;20104;-63
2022/10/19 05:27:53;;;;;;;1.10;1.00;;;7.70;99.90;;;;;;5025445;28;20026;-63
2022/10/19 05:30:20;;;;;;;1.60;1.25;;;7.80;99.90;;;;;;5028565;28;20079;-63
2022/10/19 05:32:46;;;;;;;4.25;0.93;;;7.70;99.90;;;;;;5021842;28;20474;-63
2022/10/19 05:35:12;;;;;;;1.67;1.17;;;7.60;99.90;;;;;;5031489;28;20026;-63
2022/10/19 05:37:37;;;;;;;0.95;0.80;;;7.60;99.90;;;;;;5030878;28;20397;-63
2022/10/19 05:40:03;;;;;;;3.90;1.00;;;7.60;99.90;;;;;;5030355;28;20029;-63
2022/10/19 05:42:29;;;;;;;2.75;0.93;;;7.60;99.90;;;;;;5030471;28;20038;-63
2022/10/19 05:44:54;;;;;;;1.10;0.93;;;7.60;99.90;;;;;;5032176;28;20535;-63
2022/10/19 05:47:20;;;;;;;1.10;1.00;;;7.50;99.90;;;;;;5024565;28;20056;-63
2022/10/19 05:49:47;;;;;;;1.65;0.95;;;7.50;99.90;;;;;;5014905;28;20029;-63
2022/10/19 05:52:12;;;;;;;1.30;0.90;;;7.50;99.90;;;;;;5024866;28;20021;-63
2022/10/19 05:54:38;;;;;;;1.67;1.25;;;7.50;99.90;;;;;;5022539;28;20078;-63
2022/10/19 05:57:03;;;;;;;2.08;1.10;;;7.40;99.90;;;;;;5025789;28;20025;-63
2022/10/19 05:59:29;;;;;;;5.13;1.10;;;7.40;99.90;;;;;;5041158;28;20036;-63
2022/10/19 06:01:55;;;;;;;4.35;1.33;;;7.40;99.90;;;;;;5024011;28;20028;-63
2022/10/19 06:04:20;;;;;;;5.35;1.27;;;7.40;99.90;;;;;;5028795;28;20053;-63
2022/10/19 06:06:46;;;;;;;8.43;1.13;;;7.40;99.90;;;;;;5031883;28;20018;-63
2022/10/19 06:09:12;;;;;;;1.88;1.27;;;7.40;99.90;;;;;;5028933;28;20032;-63
2022/10/19 06:11:41;;;;;;;1.77;1.05;;;7.30;99.90;;;;;;5032143;28;20025;-63
2022/10/19 06:14:11;;;;;;;2.50;1.92;;;7.30;99.90;;;;;;5029218;28;20022;-63
2022/10/19 06:16:37;;;;;;;6.10;1.88;;;7.30;99.90;;;;;;5030294;28;20030;-63
2022/10/19 06:19:04;;;;;;;2.42;1.60;;;7.20;99.90;;;;;;5031219;28;20504;-63
2022/10/19 06:21:31;;;;;;;4.97;1.92;;;7.30;99.90;;;;;;5028626;28;20072;-63
2022/10/19 06:23:59;;;;;;;4.35;1.70;;;7.30;99.90;;;;;;5024843;28;20029;-63
2022/10/19 06:26:25;;;;;;;3.30;1.83;;;7.20;99.90;;;;;;5026590;28;20496;-63
2022/10/19 06:28:55;;;;;;;5.88;2.15;;;7.20;99.90;;;;;;5034299;28;20026;-63
2022/10/19 06:31:20;;;;;;;5.35;2.20;;;7.20;99.90;;;;;;5032403;28;20017;-63
2022/10/19 06:33:46;;;;;;;8.10;1.80;;;7.20;99.90;;;;;;5035391;28;20486;-63
2022/10/19 06:36:14;;;;;;;10.80;2.33;;;7.20;99.90;;;;;;5033618;28;20037;-63
2022/10/19 06:38:41;;;;;;;12.40;2.20;;;7.20;99.90;;;;;;5028152;28;20113;-63
2022/10/19 06:41:07;;;;;;;5.05;1.92;;;7.20;99.90;;;;;;5019971;28;20069;-63
2022/10/19 06:43:33;;;;;;;4.47;2.13;;;7.20;99.90;;;;;;5033763;28;20087;-63
2022/10/19 06:46:06;;;;;;;4.32;2.38;;;7.30;99.90;;;;;;5034034;28;20033;-63
2022/10/19 06:48:31;;;;;;;5.07;2.50;;;7.30;99.90;;;;;;5025315;28;20121;-63
2022/10/19 06:51:02;;;;;;;5.57;3.08;;;7.30;99.90;;;;;;5017156;28;20109;-63
2022/10/19 06:53:28;;;;;;;7.00;3.00;;;7.30;99.90;;;;;;5027792;28;20026;-63
2022/10/19 06:56:02;;;;;;;3.47;2.88;;;7.30;99.90;;;;;;5030364;28;20033;-63
2022/10/19 06:58:28;;;;;;;6.15;3.63;;;7.30;99.90;;;;;;5016437;28;20109;-63
2022/10/19 07:00:58;;;;;;;4.00;3.50;;;7.30;99.90;;;;;;5034554;28;20109;-63
2022/10/19 07:03:26;;;;;;;5.05;3.53;;;7.40;99.90;;;;;;5033091;28;20374;-63
2022/10/19 07:06:02;;;;;;;3.65;3.10;;;7.40;99.90;;;;;;5023373;28;20496;-63
2022/10/19 07:08:29;;;;;;;3.85;3.17;;;7.40;99.90;;;;;;5021163;28;20025;-63
2022/10/19 07:10:57;;;;;;;2.85;2.60;;;7.40;99.90;;;;;;5030172;28;20551;-63
2022/10/19 07:13:24;;;;;;;3.55;2.95;;;7.40;99.90;;;;;;5032823;28;20485;-63
2022/10/19 07:15:59;;;;;;;3.85;3.17;;;7.40;99.90;;;;;;5033412;28;20037;-63
2022/10/19 07:18:25;;;;;;;3.85;2.85;;;7.40;99.90;;;;;;5033640;28;20021;-63
2022/10/19 07:20:59;;;;;;;3.55;2.63;;;7.50;99.90;;;;;;5033310;28;20029;-63
2022/10/19 07:23:26;;;;;;;3.83;3.30;;;7.50;99.90;;;;;;5031351;28;20056;-63
2022/10/19 07:25:53;;;;;;;3.90;3.50;;;7.60;99.90;;;;;;5031364;28;20026;-63
2022/10/19 07:28:20;;;;;;;4.53;3.28;;;7.60;99.90;;;;;;5015266;28;20080;-63
2022/10/19 07:30:46;;;;;;;4.95;4.00;;;7.60;99.90;;;;;;5018641;28;20401;-63
2022/10/19 07:33:11;;;;;;;5.13;3.97;;;7.70;99.90;;;;;;5034739;28;20116;-63
2022/10/19 07:35:37;;;;;;;5.68;3.92;;;7.80;99.90;;;;;;5017642;28;20060;-63
2022/10/19 07:38:02;;;;;;;7.60;5.05;;;7.80;99.90;;;;;;5024966;28;20852;-63
2022/10/19 07:40:28;;;;;;;5.55;4.10;;;7.90;99.90;;;;;;5034231;28;20057;-63
2022/10/19 07:42:53;;;;;;;6.57;4.72;;;7.90;99.90;;;;;;5023588;28;20052;-63
2022/10/19 07:45:19;;;;;;;8.27;5.28;;;8.00;99.90;;;;;;5027803;28;20117;-63
2022/10/19 07:47:44;;;;;;;6.25;4.15;;;8.00;99.90;;;;;;5014868;28;20560;-63
2022/10/19 07:50:10;;;;;;;5.90;4.22;;;8.10;99.90;;;;;;5014550;28;20470;-63
2022/10/19 07:52:35;;;;;;;10.27;5.22;;;8.10;99.90;;;;;;5034074;28;20074;-63
2022/10/19 07:55:01;;;;;;;5.70;4.03;;;8.20;99.90;;;;;;5025032;28;20021;-63
2022/10/19 07:57:26;;;;;;;8.10;4.75;;;8.20;99.90;;;;;;5026974;28;20128;-63
2022/10/19 07:59:52;;;;;;;9.50;5.60;;;8.30;99.90;;;;;;5044597;28;20063;-63
2022/10/19 08:02:18;;;;;;;9.70;5.13;;;8.30;99.90;;;;;;5041875;28;20096;-63
2022/10/19 08:04:44;;;;;;;5.50;4.50;;;8.30;99.90;;;;;;5035325;28;20021;-63
2022/10/19 08:07:10;;;;;;;7.50;4.78;;;8.40;99.90;;;;;;5031628;28;20036;-63
2022/10/19 08:09:36;;;;;;;7.25;4.82;;;8.40;99.90;;;;;;5034037;28;20036;-63
2022/10/19 08:12:03;;;;;;;6.80;4.88;;;8.40;99.90;;;;;;5031791;28;20500;-63
2022/10/19 08:14:29;;;;;;;8.35;5.40;;;8.50;99.90;;;;;;5034664;28;20029;-63
2022/10/19 08:16:55;;;;;;;8.82;6.35;;;8.50;99.90;;;;;;5034181;28;20030;-63
2022/10/19 08:19:21;;;;;;;7.55;5.18;;;8.60;99.90;;;;;;5031152;28;20053;-63
2022/10/19 08:21:47;;;;;;;6.75;4.60;;;8.60;99.90;;;;;;5032482;28;20041;-63
2022/10/19 08:24:15;;;;;;;6.95;5.45;;;8.70;99.90;;;;;;5030714;28;20107;-63
2022/10/19 08:26:41;;;;;;;6.25;5.38;;;8.80;99.90;;;;;;5025437;28;20071;-63
2022/10/19 08:29:18;;;;;;;8.13;5.10;;;8.80;99.90;;;;;;5038667;28;20021;-63
2022/10/19 08:31:45;;;;;;;10.63;6.40;;;8.90;99.90;;;;;;5032035;28;20018;-63
2022/10/19 08:34:12;;;;;;;8.50;5.97;;;9.00;99.90;;;;;;5041220;28;20805;-63
2022/10/19 08:36:38;;;;;;;10.63;5.45;;;9.00;99.90;;;;;;5042392;28;20481;-63
2022/10/19 08:39:06;;;;;;;7.78;4.13;;;9.10;99.90;;;;;;5032165;28;20033;-63
2022/10/19 08:41:38;;;;;;;6.38;4.30;;;9.20;99.90;;;;;;5031465;28;20033;-63
2022/10/19 08:44:06;;;;;;;7.97;4.68;;;9.30;99.90;;;;;;5031731;28;20052;-63
2022/10/19 08:46:51;;;;;;;9.52;4.80;;;9.40;99.90;;;;;;5031411;28;20026;-63
2022/10/19 08:49:22;;;;;;;5.30;4.07;;;9.40;99.90;;;;;;5032016;28;20428;-63
2022/10/19 08:52:01;;;;;;;5.85;4.25;;;9.50;99.90;;;;;;5031092;28;20420;-63
2022/10/19 08:54:42;;;;;;;5.07;3.33;;;9.70;99.90;;;;;;5028079;28;20501;-63
2022/10/19 08:57:27;;;;;;;4.65;3.38;;;9.70;99.90;;;;;;5020282;28;20107;-63
2022/10/19 09:00:05;;;;;;;5.65;3.15;;;9.80;99.90;;;;;;5029901;28;20033;-63
2022/10/19 09:02:46;;;;;;;4.63;3.00;;;9.90;99.90;;;;;;5030194;28;20033;-63
2022/10/19 09:05:21;;;;;;;5.43;3.05;;;10.00;99.90;;;;;;5020320;28;20470;-63
2022/10/19 09:07:52;;;;;;;6.32;2.83;;;10.20;99.90;;;;;;5029758;28;20319;-63
2022/10/19 09:10:23;;;;;;;5.05;2.70;;;10.30;99.90;;;;;;5031529;28;20069;-63
2022/10/19 09:13:00;;;;;;;5.90;2.80;;;10.40;99.90;;;;;;5031433;28;20409;-63
2022/10/19 09:15:46;;;;;;;4.75;2.42;;;10.50;99.90;;;;;;5031371;28;20021;-63
2022/10/19 09:18:18;;;;;;;4.75;2.30;;;10.70;99.90;;;;;;5031277;28;20464;-63
2022/10/19 09:20:46;;;;;;;4.63;2.88;;;10.80;99.90;;;;;;5028864;28;20103;-63
2022/10/19 09:23:34;;;;;;;3.50;1.98;;;11.00;99.90;;;;;;5031189;28;20390;-63
2022/10/19 09:25:59;;;;;;;3.78;2.20;;;11.20;99.90;;;;;;5029473;28;20017;-63
2022/10/19 09:28:37;;;;;;;2.40;1.83;;;11.30;99.90;;;;;;5030726;28;20029;-63
2022/10/19 09:31:03;;;;;;;5.07;2.70;;;11.60;99.90;;;;;;5031076;28;20041;-63
2022/10/19 09:33:37;;;;;;;7.15;2.55;;;11.70;99.90;;;;;;5031102;28;20025;-63
2022/10/19 09:36:05;;;;;;;5.63;2.28;;;11.90;99.90;;;;;;5027232;28;20119;-63
2022/10/19 09:38:31;;;;;;;3.70;2.25;;;12.10;99.90;;;;;;5024841;28;20031;-63
2022/10/19 09:40:58;;;;;;;5.68;1.95;;;12.30;99.90;;;;;;5029997;28;20037;-63
2022/10/19 09:43:25;;;;;;;4.53;1.35;;;12.50;99.90;;;;;;5019720;28;20609;-63
2022/10/19 09:45:58;;;;;;;2.20;1.17;;;12.80;99.90;;;;;;5030270;28;20028;-63
2022/10/19 09:48:32;;;;;;;4.28;1.20;;;13.10;99.90;;;;;;5030656;28;20022;-63
2022/10/19 09:51:00;;;;;;;3.97;1.00;;;13.40;99.90;;;;;;5032377;28;20144;-63
2022/10/19 09:53:27;;;;;;;1.92;0.63;;;13.80;99.90;;;;;;5034300;28;20037;-63
2022/10/19 09:55:59;;;;;;;2.35;0.73;;;14.10;99.90;;;;;;5024235;28;20101;-63
2022/10/19 09:58:26;;;;;;;4.13;1.15;;;14.50;99.90;;;;;;5028953;28;20021;-63
2022/10/19 10:00:53;;;;;;;2.47;0.70;;;14.80;98.90;;;;;;5015907;28;20030;-63
2022/10/19 10:03:28;;;;;;;1.65;0.60;;;15.20;97.30;;;;;;5035608;28;20416;-63
2022/10/19 10:06:02;;;;;;;2.38;0.60;;;16.00;96.90;;;;;;5025978;28;20022;-64
2022/10/19 10:08:32;;;;;;;1.98;0.40;;;18.10;94.10;;;;;;5016550;28;20014;-64
2022/10/19 10:11:28;;;;;;;2.28;0.70;;;20.20;90.00;;;;;;5029502;28;20018;-64
2022/10/19 10:13:56;;;;;;;5.40;0.40;;;22.10;81.40;;;;;;5035658;28;20026;-64
2022/10/19 10:16:28;;;;;;;3.75;0.50;;;24.30;73.90;;;;;;5043228;28;20029;-64
2022/10/19 10:19:06;;;;;;;1.30;0.57;;;25.80;63.80;;;;;;5054358;28;20469;-64
2022/10/19 10:21:44;;;;;;;0.55;0.30;;;27.50;58.30;;;;;;5035248;28;20029;-64
2022/10/19 10:24:09;;;;;;;2.92;0.50;;;28.80;55.60;;;;;;5029924;28;20029;-64
2022/10/19 10:26:59;;;;;;;0.77;0.30;;;30.00;50.60;;;;;;5028574;28;20026;-64
2022/10/19 10:29:31;;;;;;;1.25;0.30;;;31.40;49.10;;;;;;5034998;28;20025;-64
2022/10/19 10:32:08;;;;;;;1.05;0.43;;;32.10;48.10;;;;;;5034148;28;20033;-64
2022/10/19 10:34:42;;;;;;;2.83;0.68;;;32.90;45.50;;;;;;5030098;28;20018;-64
2022/10/19 10:37:18;;;;;;;1.75;0.50;;;31.90;40.30;;;;;;5019183;28;20022;-64
2022/10/19 10:39:44;;;;;;;1.08;0.30;;;32.40;41.50;;;;;;5026194;28;20032;-64
2022/10/19 10:42:21;;;;;;;2.38;0.52;;;33.10;41.00;;;;;;5033851;28;20022;-64
2022/10/19 10:44:51;;;;;;;4.13;0.80;;;33.60;39.80;;;;;;5019622;28;20034;-64
2022/10/19 10:47:21;;;;;;;3.45;0.65;;;33.30;38.50;;;;;;5035207;28;20021;-64
2022/10/19 10:50:22;;;;;;;1.67;0.50;;;33.20;38.60;;;;;;5041030;28;20432;-63
2022/10/19 10:53:00;;;;;;;2.42;0.55;;;33.50;39.40;;;;;;5027347;28;20541;-62
2022/10/19 10:55:25;;;;;;;1.52;0.40;;;34.00;38.20;;;;;;5033628;28;20124;-62
2022/10/19 10:58:15;;;;;;;1.88;0.50;;;34.80;37.40;;;;;;5033583;28;20498;-62
2022/10/19 11:00:41;;;;;;;1.70;0.50;;;35.80;37.10;;;;;;5033742;28;20786;-62
2022/10/19 11:03:18;;;;;;;1.63;0.55;;;37.00;37.50;;;;;;5031862;28;20473;-62
2022/10/19 11:05:48;;;;;;;1.40;0.40;;;37.50;35.20;;;;;;5034847;28;20017;-62
2022/10/19 11:08:31;;;;;;;1.33;0.57;;;37.60;34.20;;;;;;5028370;28;20014;-63
2022/10/19 11:11:21;;;;;;;2.20;0.68;;;37.80;33.80;;;;;;5017351;28;20033;-62
2022/10/19 11:13:52;;;;;;;1.33;0.43;;;37.60;33.20;;;;;;5016878;28;20052;-62
2022/10/19 11:16:27;;;;;;;1.27;0.60;;;37.40;33.40;;;;;;5015360;28;20018;-62
2022/10/19 11:18:59;;;;;;;2.72;0.60;;;37.60;33.70;;;;;;5030147;28;20114;-62
2022/10/19 11:21:43;;;;;;;2.72;0.57;;;37.80;33.40;;;;;;5016559;28;20084;-62
2022/10/19 11:24:14;;;;;;;1.95;0.65;;;38.20;33.10;;;;;;5029580;28;20478;-63
2022/10/19 11:27:05;;;;;;;1.67;0.50;;;38.30;33.00;;;;;;5034182;28;20440;-63
2022/10/19 11:29:44;;;;;;;2.03;0.60;;;38.90;32.50;;;;;;5046433;28;20040;-63
2022/10/19 11:32:19;;;;;;;1.92;0.60;;;38.50;31.80;;;;;;5031369;28;20018;-63
2022/10/19 11:35:22;;;;;;;2.03;0.68;;;38.80;32.70;;;;;;5047963;28;20025;-63
2022/10/19 11:37:58;;;;;;;1.80;0.90;;;38.70;31.40;;;;;;5016988;28;20041;-63
2022/10/19 11:40:37;;;;;;;2.67;0.68;;;39.30;32.50;;;;;;5030718;28;20104;-63
2022/10/19 11:43:34;;;;;;;4.50;0.68;;;39.70;32.20;;;;;;5025661;28;20045;-63
2022/10/19 11:46:22;;;;;;;1.25;0.60;;;40.20;32.40;;;;;;5032682;28;20034;-63
2022/10/19 11:49:04;;;;;;;1.95;0.63;;;40.60;31.60;;;;;;5032669;28;20465;-63
2022/10/19 11:51:50;;;;;;;1.70;0.63;;;40.20;31.70;;;;;;5031404;28;20117;-63
2022/10/19 11:54:34;;;;;;;2.88;0.95;;;40.40;31.50;;;;;;5032978;28;20127;-63
2022/10/19 11:57:18;;;;;;;3.80;0.80;;;40.60;30.30;;;;;;5032604;28;20018;-63
2022/10/19 11:59:58;;;;;;;1.40;0.63;;;39.10;30.20;;;;;;5032632;28;20053;-63
2022/10/19 12:02:50;;;;;;;3.30;0.63;;;38.60;31.50;;;;;;5033863;28;20307;-63
2022/10/19 12:05:30;;;;;;;2.05;0.70;;;39.50;31.80;;;;;;5014381;28;20547;-63
2022/10/19 12:08:17;;;;;;;1.83;0.70;;;40.20;31.50;;;;;;5036186;28;20037;-63
2022/10/19 12:10:56;;;;;;;1.52;0.65;;;41.20;31.30;;;;;;5045119;28;20293;-62
2022/10/19 12:13:42;;;;;;;3.00;0.90;;;41.90;30.20;;;;;;5042915;28;20022;-63
2022/10/19 12:16:12;;;;;;;2.70;0.75;;;42.50;30.20;;;;;;5036163;28;20026;-63
2022/10/19 12:18:45;;;;;;;1.90;0.70;;;42.70;29.30;;;;;;5044122;28;20028;-63
2022/10/19 12:21:23;;;;;;;1.77;0.80;;;42.70;29.50;;;;;;5039719;28;20032;-63
2022/10/19 12:23:50;;;;;;;2.45;0.70;;;42.70;29.90;;;;;;5052526;28;20100;-63
2022/10/19 12:26:18;;;;;;;2.77;0.83;;;43.10;29.60;;;;;;5042204;28;20486;-63
2022/10/19 12:28:53;;;;;;;3.17;0.80;;;43.10;29.30;;;;;;5020120;28;20076;-63
2022/10/19 12:31:20;;;;;;;2.50;0.70;;;43.40;29.00;;;;;;5024609;28;20080;-63
2022/10/19 12:34:06;;;;;;;1.45;0.70;;;43.30;29.20;;;;;;5041049;28;20029;-63
2022/10/19 12:36:45;;;;;;;1.58;0.80;;;43.40;29.20;;;;;;5024313;28;20071;-63
2022/10/19 12:39:14;;;;;;;2.53;0.82;;;43.30;29.10;;;;;;5018064;28;20368;-63
2022/10/19 12:41:53;;;;;;;1.48;0.80;;;43.30;28.90;;;;;;5039113;28;20381;-63
2022/10/19 12:44:55;;;;;;;1.38;0.75;;;43.40;28.80;;;;;;5023585;28;20045;-63
2022/10/19 12:47:23;;;;;;;1.90;0.90;;;43.50;28.90;;;;;;5048340;28;20021;-63
2022/10/19 12:49:50;;;;;;;2.22;1.50;;;43.40;28.50;;;;;;5033775;28;20099;-63
2022/10/19 12:52:39;;;;;;;3.15;1.33;;;43.60;28.80;;;;;;5029364;28;20034;-63
2022/10/19 12:55:33;;;;;;;2.80;1.40;;;43.70;28.70;;;;;;5028945;28;20018;-63
2022/10/19 12:58:04;;;;;;;1.20;0.80;;;44.00;28.80;;;;;;5012297;28;20028;-63
2022/10/19 13:00:33;;;;;;;3.35;1.00;;;43.80;28.50;;;;;;5021662;28;20052;-63
2022/10/19 13:03:07;;;;;;;2.35;1.13;;;43.60;28.60;;;;;;5031770;28;20083;-63
2022/10/19 13:05:34;;;;;;;2.97;0.90;;;43.40;28.40;;;;;;5032535;28;20504;-63
2022/10/19 13:08:02;;;;;;;2.35;1.02;;;43.40;28.80;;;;;;5031276;28;20390;-63
2022/10/19 13:10:30;;;;;;;1.38;0.80;;;43.50;28.50;;;;;;5031470;28;20025;-63
2022/10/19 13:12:56;;;;;;;2.28;1.30;;;43.40;28.50;;;;;;5037580;28;20390;-63